Terminal Aerodrome Forecast
Issued by NWS Topeka, KS

Home | Current Version | Previous Version | Text Only | Print | Product List | Glossary Off
Versions: 1 2 3 4 5 6 7 8 9 10 11 12 13 14 15 16 17 18 19 20 21 22

000
FTUS43 KTOP 201200 AAA
TAFTOP
TAF AMD
KTOP 201208Z 2012/2112 00000KT 3SM BR SKC
      TEMPO 2012/2013 1/4SM FG BKN002
     FM201400 01006KT P6SM SKC=

USA.gov is the U.S. government's official web portal to all federal, state and local government web resources and services.